createdAt,value
2022-09-25T14:35:59.989Z,20.00
2022-09-25T14:56:50.101Z,21.20
2022-09-25T15:07:01.311Z,18.50
2022-09-25T15:12:25.700Z,18.20
2022-09-25T15:15:11.869Z,17.90
2022-09-25T15:20:19.544Z,17.60
2022-09-25T15:22:58.005Z,17.40
2022-09-25T15:25:31.416Z,17.20
2022-09-25T15:27:59.278Z,17.20
2022-09-25T15:33:00.681Z,17.00
2022-09-25T15:35:30.514Z,16.90
2022-09-25T15:38:14.113Z,16.80
2022-09-25T15:43:14.131Z,16.70
2022-09-25T15:45:45.744Z,16.60
2022-09-25T16:32:36.269Z,16.00
2022-09-25T16:35:03.523Z,15.90
2022-09-25T16:37:35.417Z,15.90
2022-09-25T16:57:48.881Z,15.50
2022-09-25T17:00:25.204Z,15.50
2022-09-25T17:02:52.546Z,15.30
2022-09-25T17:05:20.931Z,15.30
2022-09-25T17:12:53.505Z,14.90
2022-09-25T17:17:55.339Z,14.90
2022-09-25T17:20:26.251Z,14.90
2022-09-25T17:35:40.279Z,14.60
2022-09-25T17:38:07.452Z,14.60
2022-09-25T17:40:36.919Z,14.50
2022-09-25T17:43:06.162Z,14.40
2022-09-25T17:48:28.245Z,14.30
2022-09-25T17:51:06.230Z,14.20
2022-09-25T20:30:35.437Z,12.10
2022-09-25T20:33:03.780Z,12.10
2022-09-25T20:35:30.761Z,12.00
2022-09-25T20:37:57.455Z,12.00
2022-09-25T20:40:24.255Z,11.90
2022-09-25T20:42:50.950Z,11.90
2022-09-25T20:45:20.204Z,11.90
2022-09-25T20:47:46.941Z,11.90
2022-09-25T20:50:14.497Z,11.90
2022-09-25T20:52:44.219Z,12.00
2022-09-25T20:55:11.011Z,11.90
2022-09-25T20:57:37.756Z,11.90
2022-09-25T21:00:05.044Z,11.80
2022-09-25T21:02:32.611Z,11.80
2022-09-25T21:05:01.796Z,11.80
2022-09-25T21:07:30.985Z,11.80
2022-09-25T21:09:57.694Z,11.80
2022-09-25T21:12:24.428Z,11.70
2022-09-25T21:14:56.120Z,11.60
2022-09-25T21:17:22.808Z,11.60
2022-09-25T21:19:49.907Z,11.50
2022-09-25T21:22:16.645Z,11.60
2022-09-25T21:24:45.886Z,11.50
2022-09-25T21:27:15.042Z,11.50
2022-09-25T21:29:44.200Z,11.60
2022-09-25T21:32:12.998Z,11.60
2022-09-25T21:34:39.707Z,11.60
2022-09-25T21:37:06.370Z,11.60
2022-09-25T21:39:33.266Z,11.60
2022-09-25T21:42:00.000Z,11.60
2022-09-25T21:44:26.818Z,11.50
2022-09-25T21:46:53.542Z,11.60
2022-09-25T21:49:23.977Z,11.60
2022-09-25T21:51:51.111Z,11.60
2022-09-25T21:54:20.661Z,11.60
2022-09-25T21:56:48.627Z,11.60
2022-09-25T21:59:15.831Z,11.60
2022-09-25T22:01:42.902Z,11.60
2022-09-25T22:04:15.164Z,11.60
2022-09-25T22:06:46.891Z,11.60
2022-09-25T22:09:19.608Z,11.60
2022-09-25T22:11:47.751Z,11.60
2022-09-25T22:14:16.540Z,11.60
2022-09-25T22:16:48.545Z,11.50
2022-09-25T22:19:17.262Z,11.50
2022-09-25T22:21:46.012Z,11.50
2022-09-25T22:24:12.785Z,11.50
2022-09-25T22:26:44.023Z,11.40
2022-09-25T22:29:11.743Z,11.50
2022-09-25T22:31:42.829Z,11.50
2022-09-25T22:34:19.880Z,11.50
2022-09-25T22:36:50.247Z,11.40
2022-09-25T22:39:19.600Z,11.40
2022-09-25T22:41:51.319Z,11.50
2022-09-25T22:44:18.594Z,11.40
2022-09-25T22:46:45.550Z,11.40
